createdAt,value
2022-07-28T00:01:42.943Z,97147.41
2022-07-28T00:04:11.538Z,97145.88
2022-07-28T00:06:40.137Z,97149.00
2022-07-28T00:09:09.071Z,97141.59
2022-07-28T00:11:50.225Z,97139.88
2022-07-28T00:14:23.642Z,97139.97
2022-07-28T00:16:52.649Z,97143.66
2022-07-28T00:19:21.062Z,97150.63
2022-07-28T00:21:49.451Z,97145.97
2022-07-28T00:24:17.934Z,97149.63
2022-07-28T00:26:46.914Z,97148.38
2022-07-28T00:29:16.128Z,97150.88
2022-07-28T00:31:44.566Z,97150.06
2022-07-28T00:34:13.205Z,97143.22
2022-07-28T00:36:42.101Z,97155.25
2022-07-28T00:39:10.434Z,97162.91
2022-07-28T00:41:38.729Z,97161.72
2022-07-28T00:44:07.990Z,97178.75
2022-07-28T00:46:37.024Z,97177.22
2022-07-28T00:49:05.852Z,97173.41
2022-07-28T00:51:34.261Z,97178.53
2022-07-28T00:54:03.238Z,97173.22
2022-07-28T00:56:32.227Z,97173.13
2022-07-28T00:59:00.896Z,97180.19
2022-07-28T01:01:30.010Z,97179.09
2022-07-28T01:04:00.650Z,97185.13
2022-07-28T01:06:32.002Z,97183.81
2022-07-28T01:09:22.099Z,97182.28
2022-07-28T01:12:12.923Z,97172.03
2022-07-28T01:14:49.553Z,97177.69
2022-07-28T01:17:42.387Z,97174.13
2022-07-28T01:20:10.827Z,97178.25
2022-07-28T01:23:20.881Z,97171.16
2022-07-28T01:26:14.938Z,97160.91
2022-07-28T01:29:04.513Z,97169.94
2022-07-28T01:31:59.260Z,97171.91
2022-07-28T01:34:33.718Z,97169.25
2022-07-28T01:37:07.905Z,97169.88
2022-07-28T01:39:36.770Z,97169.53
2022-07-28T01:42:06.515Z,97167.06
2022-07-28T01:44:37.161Z,97170.47
2022-07-28T01:47:07.854Z,97173.97
2022-07-28T01:49:36.495Z,97171.91
2022-07-28T01:52:07.183Z,97171.63
2022-07-28T01:54:38.293Z,97170.91
2022-07-28T01:57:07.491Z,97178.66
2022-07-28T01:59:38.173Z,97171.72
2022-07-28T02:02:06.615Z,97172.81
2022-07-28T02:04:36.322Z,97154.47
2022-07-28T02:07:04.749Z,97160.88
2022-07-28T02:09:33.166Z,97163.72
2022-07-28T02:12:01.500Z,97161.38
2022-07-28T02:14:29.960Z,97149.50
2022-07-28T02:17:19.139Z,97146.25
2022-07-28T02:19:48.911Z,97148.53
2022-07-28T02:22:17.414Z,97149.53
2022-07-28T02:24:45.820Z,97131.50
2022-07-28T02:27:21.560Z,97134.94
2022-07-28T02:29:57.960Z,97144.38
2022-07-28T02:32:52.114Z,97149.81
2022-07-28T02:35:51.598Z,97173.84
2022-07-28T02:38:30.088Z,97168.44
2022-07-28T02:41:09.075Z,97174.03
2022-07-28T02:43:49.936Z,97166.09
2022-07-28T02:46:26.863Z,97169.78
2022-07-28T02:48:57.255Z,97169.94
2022-07-28T02:51:26.233Z,97179.97
2022-07-28T02:53:54.582Z,97186.28
2022-07-28T02:56:22.909Z,97185.28
2022-07-28T02:58:52.056Z,97174.63
2022-07-28T03:01:20.856Z,97173.47
2022-07-28T03:03:49.293Z,97173.75
2022-07-28T03:06:19.039Z,97183.78
2022-07-28T03:08:55.020Z,97189.59
2022-07-28T03:11:23.498Z,97190.06
2022-07-28T03:13:51.887Z,97197.56
2022-07-28T03:16:20.235Z,97188.06
2022-07-28T03:18:49.505Z,97193.63
2022-07-28T03:21:17.898Z,97200.28
2022-07-28T03:23:48.177Z,97204.66
2022-07-28T03:26:38.405Z,97204.00
2022-07-28T03:29:07.019Z,97202.66
2022-07-28T03:31:35.329Z,97207.34
2022-07-28T03:34:04.699Z,97219.03
2022-07-28T03:36:40.186Z,97223.28
2022-07-28T03:39:12.143Z,97223.41
2022-07-28T03:41:40.599Z,97235.53
2022-07-28T03:44:09.461Z,97239.88
2022-07-28T03:46:44.869Z,97238.25
2022-07-28T03:49:13.572Z,97234.94
2022-07-28T03:51:42.012Z,97235.69
2022-07-28T03:54:10.492Z,97225.00
2022-07-28T03:56:39.555Z,97220.72
2022-07-28T03:59:07.805Z,97223.84
2022-07-28T04:01:36.358Z,97219.34
2022-07-28T04:04:04.755Z,97215.63
2022-07-28T04:06:33.273Z,97218.53
2022-07-28T04:09:01.610Z,97220.91
2022-07-28T04:11:30.044Z,97222.94
2022-07-28T04:13:58.511Z,97226.72
2022-07-28T04:16:26.969Z,97234.09
2022-07-28T04:18:55.419Z,97239.72
2022-07-28T04:21:23.869Z,97243.31
2022-07-28T04:23:55.280Z,97254.59
2022-07-28T04:26:26.966Z,97248.50
2022-07-28T04:28:55.437Z,97247.03
2022-07-28T04:31:24.382Z,97241.22
2022-07-28T04:33:52.776Z,97250.22
2022-07-28T04:36:22.071Z,97248.53
2022-07-28T04:38:50.709Z,97240.50
2022-07-28T04:41:19.002Z,97243.19
2022-07-28T04:43:47.557Z,97240.78
2022-07-28T04:46:18.716Z,97226.78
2022-07-28T04:48:47.316Z,97239.22
2022-07-28T04:51:15.800Z,97232.66
2022-07-28T04:53:44.255Z,97230.06
2022-07-28T04:56:12.640Z,97237.88
2022-07-28T04:58:41.034Z,97227.25
2022-07-28T05:01:12.299Z,97231.72
2022-07-28T05:03:40.737Z,97234.56
2022-07-28T05:06:09.375Z,97239.22
2022-07-28T05:08:39.035Z,97245.34
2022-07-28T05:11:07.415Z,97241.66
2022-07-28T05:13:36.085Z,97253.59
2022-07-28T05:16:04.713Z,97257.50
2022-07-28T05:18:33.159Z,97253.75
2022-07-28T05:21:01.566Z,97265.59
2022-07-28T05:23:30.200Z,97258.13
2022-07-28T05:25:59.277Z,97266.03
2022-07-28T05:28:28.337Z,97278.13
2022-07-28T05:30:56.834Z,97267.44
2022-07-28T05:33:30.199Z,97262.06
2022-07-28T05:36:01.276Z,97260.00
2022-07-28T05:38:30.646Z,97265.47
2022-07-28T05:40:59.740Z,97273.59
2022-07-28T05:43:28.149Z,97265.56
2022-07-28T05:45:57.514Z,97254.69
2022-07-28T05:48:25.904Z,97264.34
2022-07-28T05:50:54.955Z,97254.19
2022-07-28T05:53:24.869Z,97252.00
2022-07-28T05:56:00.577Z,97244.34
2022-07-28T05:58:31.021Z,97237.13
2022-07-28T06:01:02.695Z,97234.31
2022-07-28T06:03:41.451Z,97233.56
2022-07-28T06:06:15.035Z,97228.28
2022-07-28T06:08:48.273Z,97223.41
2022-07-28T06:11:21.600Z,97234.19
2022-07-28T06:13:52.556Z,97234.03
2022-07-28T06:16:21.658Z,97243.78
2022-07-28T06:18:50.859Z,97249.09
2022-07-28T06:21:19.601Z,97248.59
2022-07-28T06:23:48.490Z,97265.03
2022-07-28T06:26:17.293Z,97257.00
2022-07-28T06:28:45.727Z,97256.88
2022-07-28T06:31:14.118Z,97245.84
2022-07-28T06:33:42.627Z,97240.09
2022-07-28T06:36:11.077Z,97230.38
2022-07-28T06:38:40.411Z,97253.00
2022-07-28T06:41:08.691Z,97274.00
2022-07-28T06:43:39.292Z,97282.66
2022-07-28T06:46:07.887Z,97276.81
2022-07-28T06:48:42.037Z,97281.59
2022-07-28T06:51:10.360Z,97278.28
2022-07-28T06:53:39.147Z,97293.59
2022-07-28T06:56:07.603Z,97285.16
2022-07-28T06:58:47.130Z,97293.38
2022-07-28T07:01:16.944Z,97291.75
2022-07-28T07:03:45.816Z,97297.13
2022-07-28T07:06:14.298Z,97313.75
2022-07-28T07:08:42.713Z,97303.88
2022-07-28T07:11:12.096Z,97314.16
2022-07-28T07:13:42.189Z,97310.44
2022-07-28T07:16:10.646Z,97310.81
2022-07-28T07:18:39.127Z,97316.25
2022-07-28T07:21:07.799Z,97316.38
2022-07-28T07:23:36.279Z,97315.19
2022-07-28T07:26:04.701Z,97321.91
2022-07-28T07:28:34.618Z,97322.03
2022-07-28T07:31:03.175Z,97330.63
2022-07-28T07:33:31.766Z,97318.78
2022-07-28T07:36:00.244Z,97320.66
2022-07-28T07:38:29.340Z,97329.09
2022-07-28T07:40:58.178Z,97318.31
2022-07-28T07:43:26.799Z,97316.00
2022-07-28T07:45:55.248Z,97323.19
2022-07-28T07:48:24.076Z,97322.66
2022-07-28T07:50:54.240Z,97318.97
2022-07-28T07:53:23.369Z,97328.81
2022-07-28T07:55:52.288Z,97319.13
2022-07-28T07:58:21.069Z,97332.09
2022-07-28T08:00:49.914Z,97331.16
2022-07-28T08:03:22.310Z,97329.94
2022-07-28T08:05:55.958Z,97323.69
2022-07-28T08:08:25.988Z,97338.69
2022-07-28T08:10:54.567Z,97337.84
2022-07-28T08:13:24.047Z,97341.78
2022-07-28T08:15:52.518Z,97341.16
2022-07-28T08:18:21.612Z,97341.38
2022-07-28T08:20:51.399Z,97338.38
2022-07-28T08:23:25.827Z,97341.25
2022-07-28T08:25:55.897Z,97348.78
2022-07-28T08:28:24.248Z,97350.38
2022-07-28T08:30:53.210Z,97355.47
2022-07-28T08:33:22.517Z,97359.50
2022-07-28T08:35:51.083Z,97359.66
2022-07-28T08:38:20.370Z,97368.81
2022-07-28T08:40:50.285Z,97371.03
2022-07-28T08:43:27.887Z,97372.91
2022-07-28T08:45:58.568Z,97374.38
2022-07-28T08:48:30.625Z,97383.75
2022-07-28T08:51:12.054Z,97384.66
2022-07-28T08:53:41.090Z,97388.19
2022-07-28T08:56:13.269Z,97394.44
2022-07-28T08:58:42.510Z,97389.34
2022-07-28T09:01:12.120Z,97395.50
2022-07-28T09:03:40.932Z,97400.19
2022-07-28T09:06:09.404Z,97393.56
2022-07-28T09:08:38.489Z,97392.28
2022-07-28T09:11:08.595Z,97393.38
2022-07-28T09:13:37.000Z,97403.13
2022-07-28T09:16:07.240Z,97410.16
2022-07-28T09:18:35.696Z,97401.03
2022-07-28T09:21:04.343Z,97399.41
2022-07-28T09:23:46.163Z,97397.56
2022-07-28T09:26:14.974Z,97404.69
2022-07-28T09:28:57.828Z,97405.34
2022-07-28T09:31:27.549Z,97396.34
2022-07-28T09:34:03.728Z,97397.72
2022-07-28T09:36:39.842Z,97390.88
2022-07-28T09:39:08.640Z,97394.47
2022-07-28T09:41:51.219Z,97375.34
2022-07-28T09:44:21.314Z,97380.34
2022-07-28T09:46:50.117Z,97382.81
2022-07-28T09:49:26.434Z,97386.19
2022-07-28T09:52:03.922Z,97395.06
2022-07-28T09:54:40.259Z,97381.16
2022-07-28T09:57:13.195Z,97381.13
2022-07-28T09:59:47.100Z,97386.00
2022-07-28T10:02:30.926Z,97381.75
2022-07-28T10:05:02.844Z,97391.41
2022-07-28T10:07:31.525Z,97391.94
2022-07-28T10:10:01.644Z,97390.06
2022-07-28T10:12:31.480Z,97369.84
2022-07-28T10:15:31.745Z,97376.50
2022-07-28T10:18:02.308Z,97368.59
2022-07-28T10:20:31.141Z,97365.22
2022-07-28T10:23:05.874Z,97360.72
2022-07-28T10:25:35.071Z,97366.22
2022-07-28T10:28:04.707Z,97363.09
2022-07-28T10:30:38.156Z,97359.47
2022-07-28T10:33:09.573Z,97366.97
2022-07-28T10:35:49.613Z,97363.69
2022-07-28T10:38:30.584Z,97363.06
2022-07-28T10:41:04.519Z,97353.13
2022-07-28T10:43:32.970Z,97362.84
2022-07-28T10:46:06.829Z,97362.28
2022-07-28T10:48:38.732Z,97367.44
2022-07-28T10:51:07.304Z,97364.94
2022-07-28T10:53:51.263Z,97367.16
2022-07-28T10:56:43.271Z,97368.03
2022-07-28T10:59:55.792Z,97373.78
2022-07-28T11:02:59.188Z,97364.75
2022-07-28T11:05:37.331Z,97372.97
2022-07-28T11:08:27.897Z,97370.69
2022-07-28T11:11:00.890Z,97365.66
2022-07-28T11:13:40.885Z,97355.81
2022-07-28T11:16:16.110Z,97360.03
2022-07-28T11:19:07.578Z,97349.25
2022-07-28T11:22:22.726Z,97343.34
2022-07-28T11:24:58.303Z,97340.25
2022-07-28T11:27:47.938Z,97340.75
2022-07-28T11:30:19.754Z,97329.94
2022-07-28T11:32:52.592Z,97334.34
2022-07-28T11:35:23.169Z,97321.34
2022-07-28T11:38:03.764Z,97318.25
2022-07-28T11:40:48.319Z,97313.97
2022-07-28T11:43:37.130Z,97310.47
2022-07-28T11:46:07.718Z,97303.16
2022-07-28T11:48:45.219Z,97302.72
2022-07-28T11:51:16.185Z,97302.63
2022-07-28T11:53:53.174Z,97292.50
2022-07-28T11:56:24.598Z,97298.69
2022-07-28T11:59:06.640Z,97293.44
2022-07-28T12:01:38.466Z,97292.44
2022-07-28T12:04:15.667Z,97286.25
2022-07-28T12:06:44.439Z,97286.75
2022-07-28T12:09:26.265Z,97281.34
2022-07-28T12:11:58.185Z,97278.25
2022-07-28T12:14:47.097Z,97279.47
2022-07-28T12:17:16.352Z,97278.84
2022-07-28T12:19:44.838Z,97283.28
2022-07-28T12:22:15.774Z,97285.31
2022-07-28T12:24:45.701Z,97284.25
2022-07-28T12:27:18.496Z,97296.94
2022-07-28T12:30:00.963Z,97283.56
2022-07-28T12:32:36.537Z,97276.41
2022-07-28T12:35:08.216Z,97277.03
2022-07-28T12:37:36.662Z,97273.09
2022-07-28T12:40:08.189Z,97273.28
2022-07-28T12:42:37.065Z,97268.13
2022-07-28T12:45:08.802Z,97278.59
2022-07-28T12:47:37.369Z,97286.16
2022-07-28T12:50:16.128Z,97276.97
2022-07-28T12:52:46.091Z,97284.25
2022-07-28T12:55:27.555Z,97284.88
2022-07-28T12:57:56.088Z,97283.06
2022-07-28T13:00:27.158Z,97279.63
2022-07-28T13:02:58.109Z,97275.19
2022-07-28T13:05:57.282Z,97273.13
2022-07-28T13:08:27.653Z,97268.25
2022-07-28T13:10:58.832Z,97274.78
2022-07-28T13:13:28.124Z,97269.44
2022-07-28T13:16:13.307Z,97277.41
2022-07-28T13:18:43.211Z,97267.31
2022-07-28T13:21:13.592Z,97262.03
2022-07-28T13:23:44.672Z,97266.50
2022-07-28T13:26:14.039Z,97267.63
2022-07-28T13:28:42.602Z,97258.81
2022-07-28T13:31:12.352Z,97255.03
2022-07-28T13:33:42.300Z,97269.50
2022-07-28T13:36:10.683Z,97265.59
2022-07-28T13:38:40.431Z,97265.13
2022-07-28T13:41:08.950Z,97252.94
2022-07-28T13:43:38.624Z,97254.34
2022-07-28T13:46:07.401Z,97246.44
2022-07-28T13:48:58.063Z,97237.53
2022-07-28T13:51:29.446Z,97243.03
2022-07-28T13:54:03.226Z,97241.81
2022-07-28T13:56:31.754Z,97244.03
2022-07-28T13:59:01.196Z,97239.31
2022-07-28T14:01:30.041Z,97242.94
2022-07-28T14:03:58.706Z,97239.41
2022-07-28T14:06:27.567Z,97242.16
2022-07-28T14:08:56.120Z,97240.88
2022-07-28T14:11:25.096Z,97228.38
2022-07-28T14:13:53.722Z,97234.28
2022-07-28T14:16:22.439Z,97224.09
2022-07-28T14:18:50.909Z,97223.22
2022-07-28T14:21:20.067Z,97222.19
2022-07-28T14:23:48.612Z,97207.00
2022-07-28T14:26:35.087Z,97215.16
2022-07-28T14:29:11.494Z,97221.25
2022-07-28T14:31:40.219Z,97216.03
2022-07-28T14:34:08.780Z,97214.00
2022-07-28T14:36:37.981Z,97214.72
2022-07-28T14:39:10.527Z,97210.78
2022-07-28T14:41:42.940Z,97210.47
2022-07-28T14:44:12.335Z,97217.41
2022-07-28T14:46:44.929Z,97194.00
2022-07-28T14:49:13.522Z,97196.59
2022-07-28T14:51:44.759Z,97191.25
2022-07-28T14:54:16.006Z,97175.03
2022-07-28T14:56:45.860Z,97168.97
2022-07-28T14:59:14.196Z,97172.59
2022-07-28T15:01:42.702Z,97181.41
2022-07-28T15:04:12.876Z,97175.66
2022-07-28T15:06:41.586Z,97186.97
2022-07-28T15:09:10.064Z,97184.97
2022-07-28T15:11:39.951Z,97184.03
2022-07-28T15:14:09.453Z,97184.94
2022-07-28T15:16:38.736Z,97193.38
2022-07-28T15:19:08.730Z,97185.19
2022-07-28T15:21:40.629Z,97182.94
2022-07-28T15:24:09.514Z,97196.63
2022-07-28T15:26:39.205Z,97208.75
2022-07-28T15:29:10.631Z,97213.66
2022-07-28T15:31:41.117Z,97208.16
2022-07-28T15:34:09.583Z,97211.47
2022-07-28T15:36:39.121Z,97219.44
2022-07-28T15:39:14.102Z,97232.03
2022-07-28T15:41:46.256Z,97226.53
2022-07-28T15:44:16.564Z,97224.81
2022-07-28T15:46:46.664Z,97231.03
2022-07-28T15:49:16.460Z,97223.56
2022-07-28T15:51:45.011Z,97228.50
2022-07-28T15:54:13.892Z,97225.19
2022-07-28T15:56:42.475Z,97216.97
2022-07-28T15:59:11.905Z,97212.81
2022-07-28T16:01:45.140Z,97215.00
2022-07-28T16:04:14.355Z,97213.00
2022-07-28T16:07:10.599Z,97208.28
2022-07-28T16:09:45.985Z,97216.31
2022-07-28T16:12:16.063Z,97225.88
2022-07-28T16:14:44.608Z,97218.56
2022-07-28T16:17:13.173Z,97219.88
2022-07-28T16:19:50.040Z,97210.03
2022-07-28T16:22:19.380Z,97223.47
2022-07-28T16:24:48.068Z,97221.28
2022-07-28T16:27:17.255Z,97227.97
2022-07-28T16:29:45.955Z,97233.50
2022-07-28T16:32:14.380Z,97227.88
2022-07-28T16:34:42.960Z,97235.94
2022-07-28T16:37:17.510Z,97240.75
2022-07-28T16:39:49.829Z,97235.47
2022-07-28T16:42:20.739Z,97237.41
2022-07-28T16:44:49.227Z,97244.06
2022-07-28T16:47:18.236Z,97254.09
2022-07-28T16:49:46.942Z,97258.44
2022-07-28T16:52:15.622Z,97268.16
2022-07-28T16:54:44.259Z,97270.31
2022-07-28T16:57:13.862Z,97274.44
2022-07-28T16:59:48.211Z,97275.91
2022-07-28T17:02:18.547Z,97271.91
2022-07-28T17:04:47.413Z,97268.88
2022-07-28T17:07:16.211Z,97259.91
2022-07-28T17:09:45.227Z,97270.91
2022-07-28T17:12:14.125Z,97269.19
2022-07-28T17:14:42.662Z,97268.81
2022-07-28T17:17:11.037Z,97266.66
2022-07-28T17:19:46.410Z,97276.06
2022-07-28T17:22:17.023Z,97286.25
2022-07-28T17:24:45.660Z,97292.66
2022-07-28T17:30:03.879Z,97296.91
2022-07-28T17:32:32.318Z,97305.03
2022-07-28T17:35:00.771Z,97317.13
2022-07-28T17:37:29.557Z,97323.16
2022-07-28T17:40:01.249Z,97327.28
2022-07-28T17:42:36.619Z,97320.06
2022-07-28T17:45:09.785Z,97332.50
2022-07-28T17:47:38.866Z,97334.38
2022-07-28T17:50:15.764Z,97337.94
2022-07-28T17:52:44.687Z,97347.94
2022-07-28T17:55:35.640Z,97347.69
2022-07-28T17:58:28.187Z,97361.63
2022-07-28T18:01:09.886Z,97360.66
2022-07-28T18:03:57.872Z,97362.81
2022-07-28T18:06:27.001Z,97362.09
2022-07-28T18:08:56.803Z,97368.41
2022-07-28T18:11:27.999Z,97372.16
2022-07-28T18:14:04.461Z,97374.72
2022-07-28T18:16:35.411Z,97373.44
2022-07-28T18:19:07.005Z,97372.66
2022-07-28T18:21:36.106Z,97382.47
2022-07-28T18:24:05.275Z,97387.16
2022-07-28T18:26:33.779Z,97391.53
2022-07-28T18:29:03.265Z,97396.53
2022-07-28T18:31:32.635Z,97395.72
2022-07-28T18:34:01.216Z,97401.91
2022-07-28T18:36:30.296Z,97409.13
2022-07-28T18:39:01.685Z,97411.91
2022-07-28T18:41:34.553Z,97404.91
2022-07-28T18:44:18.936Z,97400.63
2022-07-28T18:46:49.914Z,97401.59
2022-07-28T18:49:18.794Z,97397.25
2022-07-28T18:51:47.517Z,97389.19
2022-07-28T18:54:21.622Z,97387.00
2022-07-28T18:56:58.098Z,97395.41
2022-07-28T18:59:26.584Z,97385.44
2022-07-28T19:01:55.982Z,97386.59
2022-07-28T19:04:24.443Z,97384.88
2022-07-28T19:06:53.492Z,97382.72
2022-07-28T19:09:23.380Z,97378.13
2022-07-28T19:11:53.166Z,97381.63
2022-07-28T19:14:22.951Z,97375.53
2022-07-28T19:16:51.636Z,97377.94
2022-07-28T19:19:20.876Z,97381.63
2022-07-28T19:21:52.202Z,97386.44
2022-07-28T19:24:20.951Z,97394.81
2022-07-28T19:26:51.879Z,97405.00
2022-07-28T19:29:23.849Z,97400.34
2022-07-28T19:31:54.638Z,97400.41
2022-07-28T19:34:23.621Z,97417.06
2022-07-28T19:36:53.267Z,97415.81
2022-07-28T19:39:21.888Z,97402.69
2022-07-28T19:41:55.447Z,97408.81
2022-07-28T19:44:24.142Z,97403.28
2022-07-28T19:46:54.112Z,97395.22
2022-07-28T19:49:24.587Z,97408.38
2022-07-28T19:51:53.685Z,97412.19
2022-07-28T19:54:23.963Z,97413.53
2022-07-28T19:56:53.045Z,97413.03
2022-07-28T19:59:22.277Z,97403.97
2022-07-28T20:01:51.973Z,97414.91
2022-07-28T20:04:22.109Z,97405.16
2022-07-28T20:06:55.641Z,97407.22
2022-07-28T20:09:24.481Z,97412.28
2022-07-28T20:11:52.964Z,97423.00
2022-07-28T20:14:22.581Z,97423.63
2022-07-28T20:16:53.128Z,97422.09
2022-07-28T20:19:22.978Z,97424.97
2022-07-28T20:21:52.639Z,97416.19
2022-07-28T20:24:21.851Z,97431.16
2022-07-28T20:26:52.025Z,97420.25
2022-07-28T20:29:21.441Z,97419.69
2022-07-28T20:31:49.963Z,97439.38
2022-07-28T20:34:18.774Z,97442.28
2022-07-28T20:36:48.490Z,97446.66
2022-07-28T20:39:43.266Z,97451.47
2022-07-28T20:42:08.221Z,97448.03
2022-07-28T20:44:38.942Z,97451.75
2022-07-28T20:47:09.829Z,97455.69
2022-07-28T20:49:38.279Z,97463.06
2022-07-28T20:52:07.175Z,97464.78
2022-07-28T20:54:35.883Z,97464.41
2022-07-28T20:57:04.290Z,97456.84
2022-07-28T20:59:32.760Z,97469.19
2022-07-28T21:02:01.594Z,97472.50
2022-07-28T21:04:30.064Z,97465.91
2022-07-28T21:07:04.059Z,97459.19
2022-07-28T21:09:32.775Z,97448.47
2022-07-28T21:12:01.289Z,97443.59
2022-07-28T21:14:29.970Z,97443.00
2022-07-28T21:16:58.555Z,97442.16
2022-07-28T21:19:27.043Z,97433.16
2022-07-28T21:21:55.586Z,97437.56
2022-07-28T21:24:24.828Z,97452.16
2022-07-28T21:26:54.436Z,97450.63
2022-07-28T21:32:02.072Z,97451.56
2022-07-28T21:34:39.620Z,97464.06
2022-07-28T21:37:08.134Z,97475.06
2022-07-28T21:39:42.080Z,97481.59
2022-07-28T21:42:10.595Z,97476.91
2022-07-28T21:44:39.092Z,97470.88
2022-07-28T21:47:08.247Z,97471.56
2022-07-28T21:49:37.262Z,97467.63
2022-07-28T21:52:07.284Z,97474.25
2022-07-28T21:54:38.032Z,97474.53
2022-07-28T21:57:22.464Z,97481.38
2022-07-28T21:59:55.198Z,97484.59
2022-07-28T22:02:24.126Z,97488.25
2022-07-28T22:04:53.351Z,97487.50
2022-07-28T22:07:22.816Z,97490.25
2022-07-28T22:09:51.164Z,97507.94
2022-07-28T22:12:19.651Z,97511.81
2022-07-28T22:14:48.250Z,97510.50
2022-07-28T22:17:16.678Z,97507.09
2022-07-28T22:19:45.099Z,97510.56
2022-07-28T22:22:13.428Z,97511.81
2022-07-28T22:24:41.770Z,97504.06
2022-07-28T22:27:10.376Z,97512.22
2022-07-28T22:29:39.260Z,97504.53
2022-07-28T22:32:14.653Z,97509.19
2022-07-28T22:34:43.094Z,97492.97
2022-07-28T22:37:13.355Z,97487.81
2022-07-28T22:39:42.614Z,97486.94
2022-07-28T22:42:11.119Z,97495.47
2022-07-28T22:44:39.576Z,97490.22
2022-07-28T22:47:07.867Z,97480.94
2022-07-28T22:49:36.385Z,97484.31
2022-07-28T22:52:05.030Z,97489.63
2022-07-28T22:54:39.742Z,97487.94
2022-07-28T22:57:08.130Z,97484.53
2022-07-28T22:59:40.063Z,97491.41
2022-07-28T23:02:10.954Z,97480.44
2022-07-28T23:04:40.282Z,97474.91
2022-07-28T23:07:12.417Z,97480.41
2022-07-28T23:09:44.693Z,97473.94
2022-07-28T23:12:14.421Z,97478.72
2022-07-28T23:14:43.166Z,97476.50
2022-07-28T23:17:11.537Z,97469.00
2022-07-28T23:19:40.914Z,97479.19
2022-07-28T23:22:09.409Z,97479.75
2022-07-28T23:24:38.604Z,97461.34
2022-07-28T23:27:07.414Z,97470.69
2022-07-28T23:29:35.934Z,97471.19
2022-07-28T23:32:04.648Z,97475.81
2022-07-28T23:34:33.844Z,97480.50
2022-07-28T23:37:02.668Z,97464.47
2022-07-28T23:39:31.065Z,97468.38
2022-07-28T23:41:59.444Z,97475.59
2022-07-28T23:44:29.296Z,97464.69
2022-07-28T23:46:57.745Z,97467.78
2022-07-28T23:49:26.258Z,97463.19
2022-07-28T23:51:54.812Z,97464.47
2022-07-28T23:54:24.613Z,97459.53
2022-07-28T23:56:55.826Z,97461.78
2022-07-28T23:59:24.753Z,97459.75
